KCHO

Charlottesville-Albemarle Airport

Charlottesville, Virginia, USA
KCHO 172344Z 1800/1824 VRB03KT 1SM -SN BR OVC010 FM180600 VRB03KT 2SM BR OVC010 FM180900 VRB03KT 4SM BR OVC010 FM181400 26004KT P6SM SCT040 SCT250 FM182200 VRB03KT P6SM SCT250
Issued Valid From Valid To
Jan-17 @ 23:44 UTC
(9 minutes ago)
Jan-18 @ 00:00 UTC
(in 7 minutes)
Jan-19 @ 00:00 UTC
(in 24 hours)
Jan-18 @ 00:00 to Jan-18 @ 06:00
KCHO 172344Z 1800/1824 VRB03KT 1SM -SN BR OVC010
Wind Visibility Clouds Conditions
Variable at 3 knots 1 miles
  • Overcast at 1,000' AGL
  • Light Snow
  • Mist
From Jan-18 @ 06:00 to Jan-18 @ 09:00
FM180600 VRB03KT 2SM BR OVC010
Wind Visibility Clouds Conditions
Variable at 3 knots 2 miles
  • Overcast at 1,000' AGL
  • Mist
From Jan-18 @ 09:00 to Jan-18 @ 14:00
FM180900 VRB03KT 4SM BR OVC010
Wind Visibility Clouds Conditions
Variable at 3 knots 4 miles
  • Overcast at 1,000' AGL
  • Mist
From Jan-18 @ 14:00 to Jan-18 @ 22:00
FM181400 26004KT P6SM SCT040 SCT250
Wind Visibility Clouds
260° at 4 knots Greater than 6 miles
  • Scattered at 4,000' AGL
  • Scattered at 25,000' AGL
From Jan-18 @ 22:00 to Jan-19 @ 00:00
FM182200 VRB03KT P6SM SCT250
Wind Visibility Clouds
Variable at 3 knots Greater than 6 miles
  • Scattered at 25,000' AGL
KCHO 172344Z 1800/1824 VRB03KT 1SM -SN BR OVC010 FM180600 VRB03KT 2SM BR OVC010 FM180900 VRB03KT 4SM BR OVC010 FM181400 26004KT P6SM SCT040 SCT250 FM182200 VRB03KT P6SM SCT250
Issued Jan-17 @ 23:44 UTC
(9 minutes ago)
Valid From Jan-18 @ 00:00 UTC
(in 7 minutes)
Valid To Jan-19 @ 00:00 UTC
(in 24 hours)
Jan-18 @ 00:00 - Jan-18 @ 06:00
Wind Visibility
Variable at 3 knots 1 miles
Clouds
  • Overcast at 1,000' AGL
Conditions
  • Light Snow
  • Mist
From Jan-18 @ 06:00 - Jan-18 @ 09:00
Wind Visibility
Variable at 3 knots 2 miles
Clouds
  • Overcast at 1,000' AGL
Conditions
  • Mist
From Jan-18 @ 09:00 - Jan-18 @ 14:00
Wind Visibility
Variable at 3 knots 4 miles
Clouds
  • Overcast at 1,000' AGL
Conditions
  • Mist
From Jan-18 @ 14:00 - Jan-18 @ 22:00
Wind Visibility
260° at 4 knots Greater than 6 miles
Clouds
  • Scattered at 4,000' AGL
  • Scattered at 25,000' AGL
From Jan-18 @ 22:00 - Jan-19 @ 00:00
Wind Visibility
Variable at 3 knots Greater than 6 miles
Clouds
  • Scattered at 25,000' AGL